createdAt,value
2023-04-21T00:01:44.129Z,20.48
2023-04-21T00:04:13.578Z,20.83
2023-04-21T00:06:42.748Z,19.60
2023-04-21T00:09:11.300Z,22.23
2023-04-21T00:11:39.455Z,24.48
2023-04-21T00:14:07.508Z,19.15
2023-04-21T00:16:36.955Z,22.83
2023-04-21T00:19:07.019Z,22.42
2023-04-21T00:21:35.126Z,20.55
2023-04-21T00:24:03.397Z,23.20
2023-04-21T00:26:31.431Z,20.42
2023-04-21T00:28:59.403Z,20.25
2023-04-21T00:31:27.504Z,20.45
2023-04-21T00:33:56.814Z,22.15
2023-04-21T00:36:28.404Z,23.13
2023-04-21T00:38:56.402Z,22.33
2023-04-21T00:41:24.823Z,21.70
2023-04-21T00:44:02.601Z,23.02
2023-04-21T00:46:30.835Z,26.45
2023-04-21T00:49:00.642Z,23.30
2023-04-21T00:51:30.180Z,23.35
2023-04-21T00:53:58.428Z,25.70
2023-04-21T00:56:27.400Z,24.25
2023-04-21T00:58:55.950Z,25.33
2023-04-21T01:01:24.406Z,23.15
2023-04-21T01:06:22.395Z,23.88
2023-04-21T01:08:51.180Z,30.15
2023-04-21T01:11:19.161Z,24.05
2023-04-21T01:13:47.916Z,26.02
2023-04-21T01:16:18.260Z,26.10
2023-04-21T01:18:46.416Z,26.58
2023-04-21T01:21:14.438Z,27.25
2023-04-21T01:23:44.330Z,28.75
2023-04-21T01:26:12.412Z,29.55
2023-04-21T01:28:40.427Z,25.80
2023-04-21T01:31:08.430Z,26.27
2023-04-21T01:33:36.507Z,27.17
2023-04-21T01:36:04.683Z,27.55
2023-04-21T01:38:32.650Z,28.02
2023-04-21T01:41:01.979Z,26.77
2023-04-21T01:43:30.029Z,28.58
2023-04-21T01:45:58.022Z,27.27
2023-04-21T01:48:25.995Z,27.38
2023-04-21T01:50:54.000Z,30.08
2023-04-21T01:53:22.090Z,30.42
2023-04-21T01:55:50.081Z,31.15
2023-04-21T01:58:19.434Z,30.75
2023-04-21T02:00:47.353Z,29.73
2023-04-21T02:03:15.450Z,30.25
2023-04-21T02:05:43.557Z,31.25
2023-04-21T02:08:11.537Z,29.77
2023-04-21T02:10:39.493Z,27.80
2023-04-21T02:13:07.507Z,28.13
2023-04-21T02:15:38.663Z,28.90
2023-04-21T02:18:08.309Z,27.52
2023-04-21T02:20:36.515Z,29.75
2023-04-21T02:23:04.548Z,29.48
2023-04-21T02:25:32.597Z,29.20
2023-04-21T02:28:00.627Z,30.55
2023-04-21T02:30:29.044Z,29.98
2023-04-21T02:32:58.503Z,30.55
2023-04-21T02:35:27.156Z,28.52
2023-04-21T02:37:55.170Z,31.75
2023-04-21T02:40:23.157Z,31.27
2023-04-21T02:42:51.104Z,31.05
2023-04-21T02:45:19.141Z,29.35
2023-04-21T02:47:47.215Z,31.05
2023-04-21T02:50:16.643Z,31.70
2023-04-21T02:52:44.648Z,28.65
2023-04-21T02:55:12.675Z,28.63
2023-04-21T02:57:40.683Z,32.50
2023-04-21T03:00:11.861Z,33.20
2023-04-21T03:02:40.066Z,33.63
2023-04-21T03:05:08.861Z,28.75
2023-04-21T03:07:38.181Z,31.92
2023-04-21T03:10:07.317Z,28.17
2023-04-21T03:12:35.500Z,30.33
2023-04-21T03:15:03.490Z,30.13
2023-04-21T03:17:33.147Z,29.13
2023-04-21T03:20:01.467Z,30.08
2023-04-21T03:22:29.470Z,31.35
2023-04-21T03:24:58.837Z,28.17
2023-04-21T03:27:26.933Z,27.85
2023-04-21T03:29:54.916Z,24.27
2023-04-21T03:32:23.225Z,29.23
2023-04-21T03:34:51.496Z,30.00
2023-04-21T03:37:19.509Z,30.23
2023-04-21T03:39:47.471Z,26.88
2023-04-21T03:42:16.794Z,30.48
2023-04-21T03:44:44.819Z,34.08
2023-04-21T03:47:12.809Z,35.50
2023-04-21T03:49:40.779Z,35.40
2023-04-21T03:52:08.724Z,35.75
2023-04-21T03:54:36.718Z,36.75
2023-04-21T03:57:04.692Z,41.00
2023-04-21T03:59:34.018Z,40.50
2023-04-21T04:02:02.194Z,41.35
2023-04-21T04:04:30.806Z,43.55
2023-04-21T04:06:58.964Z,42.00
2023-04-21T04:09:26.909Z,43.38
2023-04-21T04:11:54.891Z,42.33
2023-04-21T04:14:22.903Z,41.90
2023-04-21T04:16:52.207Z,42.22
2023-04-21T04:19:20.564Z,41.15
2023-04-21T04:21:49.260Z,46.03
2023-04-21T04:24:17.288Z,44.38
2023-04-21T04:26:45.415Z,44.45
2023-04-21T04:29:14.097Z,45.63
2023-04-21T04:31:42.240Z,39.88
2023-04-21T04:34:11.698Z,41.35
2023-04-21T04:36:39.702Z,38.72
2023-04-21T04:39:09.579Z,43.30
2023-04-21T04:41:37.889Z,40.95
2023-04-21T04:44:06.138Z,45.90
2023-04-21T04:46:34.338Z,44.42
2023-04-21T04:49:02.440Z,48.80
2023-04-21T04:51:33.799Z,49.83
2023-04-21T04:54:02.074Z,45.88
2023-04-21T04:56:31.544Z,42.55
2023-04-21T04:58:59.510Z,44.90
2023-04-21T05:01:30.804Z,48.65
2023-04-21T05:03:59.359Z,48.13
2023-04-21T05:06:28.476Z,48.17
2023-04-21T05:08:57.757Z,52.28
2023-04-21T05:11:25.849Z,51.05
2023-04-21T05:13:54.070Z,50.45
2023-04-21T05:16:22.032Z,52.08
2023-04-21T05:18:51.061Z,49.65
2023-04-21T05:21:25.059Z,53.30
2023-04-21T05:23:53.040Z,51.05
2023-04-21T05:26:22.332Z,52.65
2023-04-21T05:28:51.084Z,49.53
2023-04-21T05:31:19.101Z,52.03
2023-04-21T05:33:47.039Z,51.83
2023-04-21T05:36:14.992Z,55.92
2023-04-21T05:38:43.056Z,56.53
2023-04-21T05:41:10.999Z,53.17
2023-04-21T05:43:40.298Z,49.90
2023-04-21T05:46:11.067Z,52.17
2023-04-21T05:48:40.322Z,52.30
2023-04-21T05:51:11.860Z,51.63
2023-04-21T05:53:40.428Z,51.73
2023-04-21T05:56:10.497Z,50.00
2023-04-21T05:58:40.047Z,52.38
2023-04-21T06:01:08.065Z,50.28
2023-04-21T06:03:36.321Z,54.45
2023-04-21T06:06:05.923Z,51.42
2023-04-21T06:08:34.262Z,52.40
2023-04-21T06:11:02.240Z,55.10
2023-04-21T06:13:30.183Z,55.28
2023-04-21T06:15:59.610Z,49.28
2023-04-21T06:18:28.773Z,50.28
2023-04-21T06:20:57.068Z,58.97
2023-04-21T06:23:25.056Z,49.40
2023-04-21T06:26:01.565Z,51.50
2023-04-21T06:28:29.542Z,55.92
2023-04-21T06:30:58.861Z,55.80
2023-04-21T06:33:27.098Z,55.88
2023-04-21T06:35:55.422Z,63.97
2023-04-21T06:38:23.779Z,60.83
2023-04-21T06:40:52.193Z,56.97
2023-04-21T06:43:20.206Z,51.35
2023-04-21T06:45:48.243Z,52.88
2023-04-21T06:48:17.644Z,56.17
2023-04-21T06:50:46.488Z,59.53
2023-04-21T06:53:14.600Z,59.55
2023-04-21T06:55:43.439Z,57.63
2023-04-21T06:58:12.103Z,60.25
2023-04-21T07:00:40.345Z,52.40
2023-04-21T07:03:08.501Z,55.70
2023-04-21T07:05:37.932Z,54.38
2023-04-21T07:08:06.032Z,52.28
2023-04-21T07:10:34.142Z,49.70
2023-04-21T07:13:02.147Z,52.50
2023-04-21T07:15:30.218Z,53.80
2023-04-21T07:17:58.934Z,51.20
2023-04-21T07:20:27.253Z,51.42
2023-04-21T07:22:56.690Z,52.20
2023-04-21T07:25:24.665Z,51.80
2023-04-21T07:27:52.800Z,52.08
2023-04-21T07:30:20.819Z,53.53
2023-04-21T07:32:48.859Z,54.33
2023-04-21T07:35:17.268Z,52.85
2023-04-21T07:37:45.632Z,56.60
2023-04-21T07:40:15.089Z,56.42
2023-04-21T07:42:43.134Z,59.78
2023-04-21T07:45:11.817Z,59.33
2023-04-21T07:47:39.865Z,58.92
2023-04-21T07:50:09.247Z,54.25
2023-04-21T07:52:37.175Z,53.95
2023-04-21T07:55:05.325Z,54.20
2023-04-21T07:57:38.350Z,55.75
2023-04-21T08:00:07.680Z,53.38
2023-04-21T08:02:35.743Z,53.58
2023-04-21T08:05:04.138Z,58.10
2023-04-21T08:07:32.377Z,59.05
2023-04-21T08:10:01.151Z,54.15
2023-04-21T08:12:29.428Z,54.90
2023-04-21T08:14:58.833Z,52.70
2023-04-21T08:17:26.886Z,49.63
2023-04-21T08:19:54.920Z,52.75
2023-04-21T08:22:23.033Z,51.28
2023-04-21T08:24:51.046Z,50.00
2023-04-21T08:27:19.029Z,51.15
2023-04-21T08:29:47.063Z,52.58
2023-04-21T08:32:22.288Z,50.88
2023-04-21T08:34:51.809Z,49.92
2023-04-21T08:37:20.071Z,47.03
2023-04-21T08:39:48.306Z,48.40
2023-04-21T08:42:16.873Z,47.58
2023-04-21T08:44:45.252Z,50.22
2023-04-21T08:47:14.511Z,48.20
2023-04-21T08:49:45.594Z,46.97
2023-04-21T08:52:14.659Z,48.65
2023-04-21T08:54:42.747Z,48.03
2023-04-21T08:57:15.258Z,46.38
2023-04-21T08:59:44.365Z,43.22
2023-04-21T09:02:15.022Z,42.53
2023-04-21T09:04:46.372Z,42.55
2023-04-21T09:07:32.550Z,43.17
2023-04-21T09:10:01.502Z,40.70
2023-04-21T09:12:30.531Z,43.10
2023-04-21T09:14:59.158Z,40.70
2023-04-21T09:17:32.644Z,41.13
2023-04-21T09:20:15.461Z,38.55
2023-04-21T09:25:11.297Z,39.42
2023-04-21T09:27:39.278Z,37.78
2023-04-21T09:30:09.409Z,39.20
2023-04-21T09:32:39.088Z,36.55
2023-04-21T09:35:14.216Z,34.47
2023-04-21T09:37:45.078Z,36.00
2023-04-21T09:40:15.138Z,34.35
2023-04-21T09:42:44.686Z,33.03
2023-04-21T09:47:50.314Z,29.77
2023-04-21T09:50:54.416Z,30.60
2023-04-21T09:55:43.498Z,31.45
2023-04-21T09:58:17.222Z,30.75
2023-04-21T10:00:45.238Z,31.40
2023-04-21T10:03:15.579Z,30.38
2023-04-21T10:05:45.303Z,30.52
2023-04-21T10:08:14.080Z,30.08
2023-04-21T10:10:42.479Z,31.08
2023-04-21T10:13:16.609Z,30.15
2023-04-21T10:15:44.632Z,28.75
2023-04-21T10:18:19.879Z,29.77
2023-04-21T10:20:56.818Z,29.58
2023-04-21T10:23:32.591Z,28.10
2023-04-21T10:26:09.496Z,26.90
2023-04-21T10:28:48.674Z,25.77
2023-04-21T10:31:31.632Z,25.05
2023-04-21T10:34:22.747Z,25.95
2023-04-21T10:37:15.534Z,25.80
2023-04-21T10:39:52.559Z,24.17
2023-04-21T10:42:28.576Z,25.17
2023-04-21T10:45:12.266Z,23.02
2023-04-21T10:47:46.621Z,23.58
2023-04-21T10:50:17.318Z,22.77
2023-04-21T10:52:52.746Z,23.40
2023-04-21T10:55:21.986Z,23.70
2023-04-21T10:57:50.469Z,20.38
2023-04-21T11:00:21.005Z,19.38
2023-04-21T11:03:00.594Z,20.63
2023-04-21T11:05:30.871Z,18.67
2023-04-21T11:08:16.533Z,18.95
2023-04-21T11:10:53.882Z,20.17
2023-04-21T11:13:23.478Z,16.98
2023-04-21T11:16:08.301Z,16.83
2023-04-21T11:18:41.380Z,18.27
2023-04-21T11:21:11.471Z,17.63
2023-04-21T11:23:49.416Z,17.77
2023-04-21T11:26:17.489Z,18.90
2023-04-21T11:28:49.912Z,18.67
2023-04-21T11:31:18.014Z,17.25
2023-04-21T11:33:46.034Z,17.13
2023-04-21T11:36:13.973Z,18.67
2023-04-21T11:38:43.537Z,17.92
2023-04-21T11:41:11.855Z,17.48
2023-04-21T11:43:39.881Z,16.98
2023-04-21T11:46:25.021Z,17.60
2023-04-21T11:49:04.416Z,17.73
2023-04-21T11:51:36.732Z,17.70
2023-04-21T11:56:40.391Z,18.17
2023-04-21T11:59:09.499Z,17.98
2023-04-21T12:01:44.539Z,18.80
2023-04-21T12:04:16.223Z,18.60
2023-04-21T12:06:45.000Z,19.35
2023-04-21T12:09:20.720Z,20.65
2023-04-21T12:11:50.238Z,19.55
2023-04-21T12:14:21.964Z,20.45
2023-04-21T12:16:50.401Z,19.27
2023-04-21T12:19:25.217Z,18.67
2023-04-21T12:21:57.176Z,17.40
2023-04-21T12:24:26.594Z,19.45
2023-04-21T12:26:55.320Z,19.80
2023-04-21T12:29:23.246Z,19.35
2023-04-21T12:31:51.253Z,19.60
2023-04-21T12:34:19.243Z,20.25
2023-04-21T12:36:47.415Z,19.80
2023-04-21T12:39:17.329Z,20.52
2023-04-21T12:41:47.465Z,20.88
2023-04-21T12:44:15.573Z,18.10
2023-04-21T12:46:43.501Z,18.80
2023-04-21T12:49:11.734Z,17.67
2023-04-21T12:51:39.648Z,19.00
2023-04-21T12:54:07.725Z,17.02
2023-04-21T12:56:36.104Z,15.55
2023-04-21T12:59:05.507Z,15.95
2023-04-21T13:01:33.997Z,16.13
2023-04-21T13:04:02.280Z,15.85
2023-04-21T13:06:31.126Z,16.52
2023-04-21T13:08:59.092Z,14.90
2023-04-21T13:11:27.145Z,15.07
2023-04-21T13:13:55.128Z,15.25
2023-04-21T13:16:25.496Z,15.40
2023-04-21T13:18:54.746Z,14.18
2023-04-21T13:21:22.755Z,13.85
2023-04-21T13:23:50.812Z,14.38
2023-04-21T13:26:19.221Z,13.93
2023-04-21T13:28:47.187Z,14.07
2023-04-21T13:31:15.498Z,13.13
2023-04-21T13:33:44.889Z,14.02
2023-04-21T13:36:13.257Z,13.32
2023-04-21T13:38:41.485Z,12.48
2023-04-21T13:41:09.805Z,13.02
2023-04-21T13:43:37.789Z,13.38
2023-04-21T13:46:06.695Z,13.93
2023-04-21T13:48:34.792Z,13.13
2023-04-21T13:51:04.327Z,13.27
2023-04-21T13:53:32.281Z,14.93
2023-04-21T13:56:00.420Z,14.52
2023-04-21T13:58:30.612Z,15.07
2023-04-21T14:00:58.650Z,14.43
2023-04-21T14:03:26.730Z,14.20
2023-04-21T14:05:54.938Z,14.77
2023-04-21T14:08:24.439Z,14.50
2023-04-21T14:10:52.457Z,14.57
2023-04-21T14:13:33.708Z,15.75
2023-04-21T14:16:04.086Z,14.85
2023-04-21T14:18:32.100Z,15.75
2023-04-21T14:21:00.100Z,16.70
2023-04-21T14:23:29.561Z,15.27
2023-04-21T14:25:57.574Z,14.80
2023-04-21T14:28:25.543Z,16.73
2023-04-21T14:30:53.501Z,15.63
2023-04-21T14:33:21.519Z,16.02
2023-04-21T14:35:49.687Z,16.33
2023-04-21T14:38:17.685Z,16.90
2023-04-21T14:40:46.998Z,16.52
2023-04-21T14:43:14.984Z,15.95
2023-04-21T14:45:43.628Z,15.90
2023-04-21T14:48:14.089Z,16.17
2023-04-21T14:50:42.316Z,16.00
2023-04-21T14:53:10.926Z,16.90
2023-04-21T14:55:38.927Z,16.73
2023-04-21T14:58:08.473Z,15.82
2023-04-21T15:00:36.599Z,15.68
2023-04-21T15:03:04.805Z,16.83
2023-04-21T15:05:34.809Z,16.95
2023-04-21T15:08:03.120Z,18.00
2023-04-21T15:10:32.352Z,17.23
2023-04-21T15:13:00.748Z,15.70
2023-04-21T15:15:30.251Z,16.83
2023-04-21T15:17:58.282Z,16.58
2023-04-21T15:20:40.688Z,16.42
2023-04-21T15:23:12.293Z,17.58
2023-04-21T15:25:40.592Z,18.15
2023-04-21T15:28:08.622Z,18.02
2023-04-21T15:30:38.038Z,17.83
2023-04-21T15:33:06.144Z,19.67
2023-04-21T15:35:34.129Z,18.80
2023-04-21T15:38:02.112Z,18.83
2023-04-21T15:40:30.350Z,20.08
2023-04-21T15:42:58.433Z,21.25
2023-04-21T15:45:26.436Z,20.50
2023-04-21T15:47:55.898Z,21.67
2023-04-21T15:50:23.851Z,20.88
2023-04-21T15:52:51.950Z,20.45
2023-04-21T15:55:20.126Z,20.88
2023-04-21T15:57:48.065Z,21.10
2023-04-21T16:00:16.977Z,22.52
2023-04-21T16:02:45.116Z,21.05
2023-04-21T16:05:14.743Z,20.90
2023-04-21T16:07:43.351Z,21.17
2023-04-21T16:10:12.489Z,20.58
2023-04-21T16:12:41.724Z,21.33
2023-04-21T16:17:44.327Z,21.77
2023-04-21T16:20:14.729Z,21.00
2023-04-21T16:22:43.070Z,21.85
2023-04-21T16:25:12.386Z,23.30
2023-04-21T16:27:40.725Z,22.25
2023-04-21T16:30:10.043Z,22.08
2023-04-21T16:32:38.182Z,23.17
2023-04-21T16:35:08.106Z,23.45
2023-04-21T16:37:40.131Z,22.38
2023-04-21T16:40:09.690Z,21.83
2023-04-21T16:42:38.260Z,21.95
2023-04-21T16:45:07.044Z,23.80
2023-04-21T16:47:41.180Z,23.50
2023-04-21T16:50:10.530Z,22.88
2023-04-21T16:52:40.098Z,22.20
2023-04-21T16:55:08.774Z,23.05
2023-04-21T16:57:36.872Z,23.70
2023-04-21T17:00:07.159Z,23.05
2023-04-21T17:02:35.518Z,21.80
2023-04-21T17:05:03.968Z,23.95
2023-04-21T17:07:32.468Z,23.17
2023-04-21T17:10:01.845Z,23.02
2023-04-21T17:12:29.854Z,22.17
2023-04-21T17:14:57.782Z,23.08
2023-04-21T17:17:25.975Z,23.10
2023-04-21T17:19:54.364Z,23.83
2023-04-21T17:22:22.420Z,24.20
2023-04-21T17:24:53.743Z,24.02
2023-04-21T17:27:23.619Z,22.98
2023-04-21T17:29:51.603Z,23.75
2023-04-21T17:32:19.723Z,22.55
2023-04-21T17:34:47.889Z,23.35
2023-04-21T17:37:15.967Z,25.65
2023-04-21T17:39:43.958Z,24.50
2023-04-21T17:42:11.906Z,24.08
2023-04-21T17:44:41.659Z,24.08
2023-04-21T17:47:09.925Z,24.15
2023-04-21T17:49:38.178Z,25.67
2023-04-21T17:52:06.507Z,25.55
2023-04-21T17:54:34.700Z,25.52
2023-04-21T17:57:02.964Z,24.42
2023-04-21T17:59:31.384Z,24.55
2023-04-21T18:02:01.963Z,25.52
2023-04-21T18:04:30.751Z,23.50
2023-04-21T18:06:59.654Z,23.25
2023-04-21T18:09:27.891Z,21.38
2023-04-21T18:11:56.368Z,23.00
2023-04-21T18:14:25.025Z,22.95
2023-04-21T18:16:53.000Z,20.77
2023-04-21T18:19:22.309Z,21.58
2023-04-21T18:21:50.321Z,21.45
2023-04-21T18:24:18.358Z,20.30
2023-04-21T18:26:47.026Z,18.60
2023-04-21T18:29:16.983Z,16.48
2023-04-21T18:31:45.814Z,14.45
2023-04-21T18:34:14.297Z,11.52
2023-04-21T18:36:43.626Z,11.48
2023-04-21T18:39:11.818Z,12.07
2023-04-21T18:41:40.370Z,10.15
2023-04-21T18:44:08.352Z,12.05
2023-04-21T18:46:36.550Z,12.27
2023-04-21T18:49:05.646Z,10.57
2023-04-21T18:51:33.932Z,12.02
2023-04-21T18:54:04.813Z,11.60
2023-04-21T18:56:33.550Z,13.10
2023-04-21T18:59:01.840Z,12.23
2023-04-21T19:01:29.901Z,13.25
2023-04-21T19:03:59.729Z,13.93
2023-04-21T19:06:29.306Z,12.98
2023-04-21T19:08:57.860Z,12.02
2023-04-21T19:11:27.319Z,11.98
2023-04-21T19:13:55.321Z,11.63
2023-04-21T19:16:23.373Z,11.65
2023-04-21T19:18:52.283Z,11.32
2023-04-21T19:21:20.314Z,10.25
2023-04-21T19:23:48.497Z,13.48
2023-04-21T19:26:16.650Z,9.70
2023-04-21T19:28:45.942Z,10.57
2023-04-21T19:31:13.884Z,12.07
2023-04-21T19:33:41.818Z,12.30
2023-04-21T19:36:10.485Z,10.98
2023-04-21T19:38:38.888Z,10.70
2023-04-21T19:41:06.885Z,14.65
2023-04-21T19:43:34.884Z,11.50
2023-04-21T19:46:04.322Z,11.80
2023-04-21T19:48:32.788Z,12.30
2023-04-21T19:51:00.937Z,12.63
2023-04-21T19:53:28.926Z,13.43
2023-04-21T19:55:57.282Z,14.25
2023-04-21T19:58:38.888Z,12.32
2023-04-21T20:01:09.880Z,13.90
2023-04-21T20:03:38.485Z,14.52
2023-04-21T20:06:07.072Z,15.10
2023-04-21T20:08:35.605Z,19.70
2023-04-21T20:11:03.602Z,15.70
2023-04-21T20:13:31.594Z,16.30
2023-04-21T20:15:59.897Z,18.08
2023-04-21T20:18:29.416Z,17.63
2023-04-21T20:20:57.531Z,17.80
2023-04-21T20:23:25.573Z,18.20
2023-04-21T20:25:53.612Z,21.48
2023-04-21T20:28:21.602Z,18.92
2023-04-21T20:30:49.677Z,20.20
2023-04-21T20:33:18.128Z,22.92
2023-04-21T20:35:47.450Z,19.92
2023-04-21T20:38:16.017Z,21.27
2023-04-21T20:40:44.111Z,22.40
2023-04-21T20:43:12.528Z,21.27
2023-04-21T20:45:41.260Z,22.85
2023-04-21T20:48:09.331Z,20.55
2023-04-21T20:50:37.450Z,23.95
2023-04-21T20:53:08.885Z,23.50
2023-04-21T20:55:37.028Z,20.77
2023-04-21T20:58:05.472Z,25.85
2023-04-21T21:00:34.702Z,23.60
2023-04-21T21:03:03.974Z,28.02
2023-04-21T21:05:34.111Z,26.15
2023-04-21T21:08:02.154Z,22.42
2023-04-21T21:10:31.671Z,19.67
2023-04-21T21:12:59.774Z,18.05
2023-04-21T21:15:27.971Z,24.00
2023-04-21T21:17:56.028Z,26.65
2023-04-21T21:20:24.082Z,24.05
2023-04-21T21:22:52.110Z,18.55
2023-04-21T21:25:20.074Z,21.70
2023-04-21T21:27:49.514Z,21.00
2023-04-21T21:30:17.555Z,19.33
2023-04-21T21:32:45.662Z,24.50
2023-04-21T21:35:13.680Z,18.60
2023-04-21T21:37:41.707Z,20.20
2023-04-21T21:40:11.136Z,23.30
2023-04-21T21:42:39.733Z,20.20
2023-04-21T21:45:11.169Z,21.02
2023-04-21T21:47:41.918Z,20.52
2023-04-21T21:50:12.562Z,25.17
2023-04-21T21:52:40.552Z,20.85
2023-04-21T21:55:09.622Z,24.35
2023-04-21T21:57:37.875Z,24.88
2023-04-21T22:00:08.158Z,20.83
2023-04-21T22:02:37.824Z,25.52
2023-04-21T22:05:06.274Z,20.88
2023-04-21T22:07:35.419Z,20.80
2023-04-21T22:10:03.709Z,19.80
2023-04-21T22:12:32.880Z,22.58
2023-04-21T22:15:01.086Z,20.48
2023-04-21T22:17:29.684Z,24.67
2023-04-21T22:19:59.108Z,21.52
2023-04-21T22:22:27.195Z,20.15
2023-04-21T22:24:55.189Z,18.80
2023-04-21T22:27:23.190Z,18.63
2023-04-21T22:29:51.392Z,24.45
2023-04-21T22:32:19.415Z,25.13
2023-04-21T22:34:47.401Z,23.50
2023-04-21T22:37:16.746Z,25.25
2023-04-21T22:39:45.888Z,21.50
2023-04-21T22:42:13.828Z,21.92
2023-04-21T22:44:41.858Z,20.63
2023-04-21T22:47:10.721Z,28.85
2023-04-21T22:49:39.272Z,20.80
2023-04-21T22:52:07.473Z,30.38
2023-04-21T22:54:36.778Z,24.88
2023-04-21T22:57:04.822Z,26.67
2023-04-21T22:59:32.846Z,35.05
2023-04-21T23:02:00.815Z,27.98
2023-04-21T23:04:28.763Z,29.45
2023-04-21T23:06:56.840Z,27.83
2023-04-21T23:09:24.834Z,28.83
2023-04-21T23:11:54.221Z,26.75
2023-04-21T23:14:22.197Z,24.98
2023-04-21T23:16:50.226Z,24.48
2023-04-21T23:19:18.241Z,25.05
2023-04-21T23:21:46.492Z,27.25
2023-04-21T23:24:14.539Z,24.05
2023-04-21T23:26:42.482Z,27.00
2023-04-21T23:29:11.833Z,26.65
2023-04-21T23:31:40.113Z,24.77
2023-04-21T23:34:08.124Z,25.85
2023-04-21T23:36:36.094Z,27.73
2023-04-21T23:39:04.265Z,27.58
2023-04-21T23:41:32.365Z,28.67
2023-04-21T23:44:00.378Z,29.40
2023-04-21T23:46:29.831Z,28.50
2023-04-21T23:48:57.829Z,29.30
2023-04-21T23:51:25.906Z,29.15
2023-04-21T23:53:53.940Z,29.92
2023-04-21T23:56:22.063Z,28.67
2023-04-21T23:58:50.069Z,31.60
